KTOA

Zamperini Field Airport

Torrance, California, USA
METAR KTOA 220247Z 27011KT 10SM SKC 19/16 A2993
Observed Flight Rules
Sep-22 @ 02:47 UTC (5 hours ago) Visual Flight Rules
Wind Visibility Clouds
270° at 11 knots 10 miles
Temperatures Readings
Current 19°C / 66°F
Dewpoint 16°C / 61°F
Humidity 83%
Altimeter 29.93" Hg
Pressure 1014 hPa
Elevation 31
METAR KTOA 220247Z 27011KT 10SM SKC 19/16 A2993
Observed Flight Rules
Sep-22 @ 02:47 UTC
(5 hours ago)
VFR
Wind Visibility
270° at 11 knots 10 miles
Clouds
Temperature Dewpoint
19°C / 66°F 16°C / 61°F
Humidity Altimeter Pressure
83% 29.93" Hg 1014 hPa